createdAt,value
2018-07-15T00:00:32.181Z,4.00
2018-07-15T00:03:56.613Z,4.17
2018-07-15T00:07:21.082Z,3.65
2018-07-15T00:10:46.627Z,4.22
2018-07-15T00:14:11.077Z,3.72
2018-07-15T00:17:35.542Z,4.45
2018-07-15T00:20:59.976Z,4.83
2018-07-15T00:24:24.416Z,5.20
2018-07-15T00:27:48.831Z,5.70
2018-07-15T00:31:13.321Z,4.58
2018-07-15T00:34:37.882Z,5.47
2018-07-15T00:38:02.340Z,5.55
2018-07-15T00:41:26.784Z,5.17
2018-07-15T00:44:51.253Z,6.40
2018-07-15T00:48:15.795Z,6.10
2018-07-15T00:51:40.169Z,4.97
2018-07-15T00:55:04.779Z,5.83
2018-07-15T00:58:29.290Z,4.50
2018-07-15T01:01:53.800Z,5.40
2018-07-15T01:05:18.225Z,5.60
2018-07-15T01:08:42.672Z,5.92
2018-07-15T01:12:07.172Z,5.08
2018-07-15T01:15:31.606Z,4.90
2018-07-15T01:18:56.098Z,5.72
2018-07-15T01:22:20.535Z,6.37
2018-07-15T01:25:45.034Z,5.90
2018-07-15T01:29:09.502Z,6.05
2018-07-15T01:32:33.980Z,6.47
2018-07-15T01:35:58.402Z,5.00
2018-07-15T01:39:22.831Z,5.37
2018-07-15T01:42:47.355Z,5.33
2018-07-15T01:46:11.834Z,6.87
2018-07-15T01:49:36.253Z,5.40
2018-07-15T01:53:00.710Z,6.08
2018-07-15T01:56:25.104Z,6.20
2018-07-15T01:59:49.518Z,7.47
2018-07-15T02:03:13.992Z,6.30
2018-07-15T02:06:38.415Z,9.63
2018-07-15T02:10:02.959Z,6.03
2018-07-15T02:13:27.319Z,6.78
2018-07-15T02:16:51.744Z,6.03
2018-07-15T02:20:16.174Z,5.80
2018-07-15T02:23:40.572Z,6.35
2018-07-15T02:27:05.082Z,6.87
2018-07-15T02:30:29.497Z,7.45
2018-07-15T02:33:54.031Z,6.67
2018-07-15T02:37:18.463Z,6.80
2018-07-15T02:40:42.897Z,6.80
2018-07-15T02:44:07.803Z,6.85
2018-07-15T02:47:32.213Z,7.25
2018-07-15T02:50:56.684Z,7.65
2018-07-15T02:54:21.108Z,8.40
2018-07-15T02:57:45.546Z,8.48
2018-07-15T03:01:10.018Z,7.62
2018-07-15T03:04:34.498Z,8.10
2018-07-15T03:07:58.932Z,7.67
2018-07-15T03:11:23.335Z,9.68
2018-07-15T03:14:47.805Z,8.25
2018-07-15T03:18:12.202Z,7.90
2018-07-15T03:21:36.649Z,8.65
2018-07-15T03:25:01.093Z,8.45
2018-07-15T03:28:25.519Z,8.65
2018-07-15T03:31:49.983Z,8.43
2018-07-15T03:35:14.401Z,9.55
2018-07-15T03:38:41.685Z,9.93
2018-07-15T03:42:06.306Z,11.18
2018-07-15T03:45:30.759Z,11.30
2018-07-15T03:48:55.178Z,9.78
2018-07-15T03:52:19.615Z,10.40
2018-07-15T03:55:44.070Z,9.70
2018-07-15T03:59:08.578Z,10.00
2018-07-15T04:02:32.958Z,10.90
2018-07-15T04:05:57.101Z,9.33
2018-07-15T04:09:21.519Z,11.97
2018-07-15T04:12:45.934Z,10.17
2018-07-15T04:16:10.337Z,9.50
2018-07-15T04:19:34.740Z,11.03
2018-07-15T04:22:59.171Z,11.13
2018-07-15T04:26:23.622Z,12.03
2018-07-15T04:29:48.037Z,11.68
2018-07-15T04:33:12.478Z,15.90
2018-07-15T04:36:36.927Z,11.83
2018-07-15T04:40:01.351Z,11.53
2018-07-15T04:43:25.856Z,12.80
2018-07-15T04:46:50.293Z,14.13
2018-07-15T04:50:14.755Z,15.18
2018-07-15T04:53:39.189Z,10.90
2018-07-15T04:57:03.639Z,10.68
2018-07-15T05:00:28.077Z,12.25
2018-07-15T05:03:52.521Z,12.18
2018-07-15T05:07:16.947Z,12.15
2018-07-15T05:10:41.424Z,11.53
2018-07-15T05:14:06.144Z,10.85
2018-07-15T05:17:30.598Z,13.20
2018-07-15T05:20:55.020Z,14.70
2018-07-15T05:24:19.432Z,11.75
2018-07-15T05:27:43.920Z,12.18
2018-07-15T05:31:08.339Z,13.20
2018-07-15T05:34:32.767Z,11.10
2018-07-15T05:37:57.199Z,11.68
2018-07-15T05:41:21.650Z,11.75
2018-07-15T05:44:46.102Z,13.13
2018-07-15T05:48:10.646Z,10.48
2018-07-15T05:51:35.111Z,11.03
2018-07-15T05:54:59.585Z,11.25
2018-07-15T05:58:24.083Z,11.95
2018-07-15T06:01:48.536Z,10.95
2018-07-15T06:05:13.110Z,11.50
2018-07-15T06:08:37.544Z,9.30
2018-07-15T06:12:01.947Z,10.78
2018-07-15T06:15:26.431Z,10.68
2018-07-15T06:18:50.873Z,10.38
2018-07-15T06:22:15.475Z,10.55
2018-07-15T06:25:40.002Z,10.20
2018-07-15T06:29:04.460Z,12.00
2018-07-15T06:32:28.884Z,11.35
2018-07-15T06:35:53.331Z,11.03
2018-07-15T06:39:18.095Z,11.08
2018-07-15T06:42:42.623Z,11.83
2018-07-15T06:46:07.089Z,12.20
2018-07-15T06:49:31.571Z,9.78
2018-07-15T06:52:56.130Z,9.53
2018-07-15T06:56:20.556Z,10.98
2018-07-15T06:59:45.266Z,11.38
2018-07-15T07:03:09.698Z,9.50
2018-07-15T07:06:34.134Z,12.75
2018-07-15T07:09:58.578Z,12.78
2018-07-15T07:13:23.023Z,11.55
2018-07-15T07:16:47.451Z,8.93
2018-07-15T07:20:11.928Z,9.08
2018-07-15T07:23:36.359Z,7.65
2018-07-15T07:27:00.801Z,6.87
2018-07-15T07:30:25.265Z,9.28
2018-07-15T07:33:49.692Z,8.08
2018-07-15T07:37:14.167Z,3.85
2018-07-15T07:40:38.614Z,5.47
2018-07-15T07:44:03.081Z,4.90
2018-07-15T07:47:27.522Z,5.53
2018-07-15T07:50:52.006Z,5.60
2018-07-15T07:54:16.910Z,7.12
2018-07-15T07:57:41.345Z,6.50
2018-07-15T08:01:05.780Z,5.90
2018-07-15T08:04:30.318Z,5.80
2018-07-15T08:07:54.773Z,8.95
2018-07-15T08:11:19.207Z,7.78
2018-07-15T08:14:43.648Z,4.95
2018-07-15T08:18:08.286Z,4.78
2018-07-15T08:21:32.742Z,5.25
2018-07-15T08:24:57.214Z,6.45
2018-07-15T08:28:21.777Z,6.62
2018-07-15T08:31:46.104Z,3.22
2018-07-15T08:35:10.530Z,3.75
2018-07-15T08:38:34.993Z,4.05
2018-07-15T08:41:59.461Z,3.90
2018-07-15T08:45:23.915Z,4.60
2018-07-15T08:48:48.339Z,6.12
2018-07-15T08:52:12.883Z,4.47
2018-07-15T08:55:37.389Z,4.10
2018-07-15T08:59:01.886Z,5.35
2018-07-15T09:02:26.338Z,8.80
2018-07-15T09:05:50.786Z,5.72
2018-07-15T09:09:15.282Z,3.83
2018-07-15T09:12:39.823Z,3.50
2018-07-15T09:16:04.295Z,4.67
2018-07-15T09:19:28.783Z,3.98
2018-07-15T09:22:53.431Z,3.92
2018-07-15T09:26:17.938Z,4.60
2018-07-15T09:29:42.428Z,4.17
2018-07-15T09:33:07.037Z,3.58
2018-07-15T09:36:31.624Z,3.65
2018-07-15T09:39:56.125Z,4.20
2018-07-15T09:43:20.622Z,4.95
2018-07-15T09:46:45.074Z,3.37
2018-07-15T09:50:09.540Z,3.12
2018-07-15T09:53:34.083Z,5.05
2018-07-15T09:56:58.615Z,3.33
2018-07-15T10:00:28.236Z,3.45
2018-07-15T10:03:52.658Z,2.67
2018-07-15T10:07:17.089Z,4.62
2018-07-15T10:10:41.507Z,3.02
2018-07-15T10:14:05.967Z,3.00
2018-07-15T10:17:30.398Z,2.52
2018-07-15T10:20:54.829Z,3.70
2018-07-15T10:24:19.499Z,3.20
2018-07-15T10:27:43.968Z,4.00
2018-07-15T10:31:08.474Z,3.62
2018-07-15T10:34:33.212Z,3.17
2018-07-15T10:37:57.405Z,2.75
2018-07-15T10:41:21.831Z,3.42
2018-07-15T10:44:46.306Z,5.30
2018-07-15T10:48:10.771Z,2.87
2018-07-15T10:51:35.173Z,3.37
2018-07-15T10:54:59.607Z,4.87
2018-07-15T10:58:24.062Z,3.50
2018-07-15T11:01:48.541Z,3.05
2018-07-15T11:05:13.073Z,2.75
2018-07-15T11:08:37.605Z,2.70
2018-07-15T11:12:02.078Z,2.33
2018-07-15T11:15:26.492Z,4.37
2018-07-15T11:18:50.977Z,3.58
2018-07-15T11:22:15.495Z,3.40
2018-07-15T11:25:39.949Z,3.37
2018-07-15T11:29:04.450Z,3.00
2018-07-15T11:32:28.991Z,2.08
2018-07-15T11:35:53.451Z,3.42
2018-07-15T11:39:17.894Z,3.12
2018-07-15T11:42:42.327Z,3.52
2018-07-15T11:46:06.909Z,3.10
2018-07-15T11:49:31.410Z,3.52
2018-07-15T11:52:55.853Z,3.37
2018-07-15T11:56:20.329Z,3.05
2018-07-15T11:59:44.887Z,3.30
2018-07-15T12:03:09.345Z,3.27
2018-07-15T12:06:33.800Z,2.60
2018-07-15T12:09:58.284Z,3.05
2018-07-15T12:13:22.776Z,2.70
2018-07-15T12:16:47.236Z,2.35
2018-07-15T12:20:11.691Z,2.87
2018-07-15T12:23:36.139Z,2.75
2018-07-15T12:27:00.574Z,2.72
2018-07-15T12:30:25.002Z,2.60
2018-07-15T12:33:49.462Z,2.60
2018-07-15T12:37:13.928Z,2.35
2018-07-15T12:40:38.400Z,2.50
2018-07-15T12:44:02.857Z,2.83
2018-07-15T12:47:27.351Z,3.65
2018-07-15T12:50:51.845Z,2.52
2018-07-15T12:54:16.273Z,2.90
2018-07-15T12:57:40.690Z,2.85
2018-07-15T13:01:05.185Z,3.08
2018-07-15T13:04:29.662Z,2.35
2018-07-15T13:07:54.135Z,3.20
2018-07-15T13:11:18.653Z,2.30
2018-07-15T13:14:43.098Z,2.45
2018-07-15T13:18:07.565Z,3.02
2018-07-15T13:21:32.038Z,2.30
2018-07-15T13:24:56.457Z,2.47
2018-07-15T13:28:20.892Z,3.12
2018-07-15T13:31:45.369Z,3.30
2018-07-15T13:35:09.824Z,2.60
2018-07-15T13:38:34.227Z,2.60
2018-07-15T13:41:58.767Z,2.37
2018-07-15T13:45:23.136Z,2.62
2018-07-15T13:48:47.537Z,2.80
2018-07-15T13:52:12.003Z,2.47
2018-07-15T13:55:36.484Z,2.42
2018-07-15T13:59:01.016Z,2.75
2018-07-15T14:02:25.447Z,3.67
2018-07-15T14:05:49.866Z,2.50
2018-07-15T14:09:14.273Z,2.15
2018-07-15T14:12:38.723Z,2.40
2018-07-15T14:16:03.208Z,1.95
2018-07-15T14:19:27.655Z,2.37
2018-07-15T14:22:52.146Z,2.45
2018-07-15T14:26:16.597Z,2.47
2018-07-15T14:29:41.052Z,2.12
2018-07-15T14:33:05.517Z,2.08
2018-07-15T14:36:29.947Z,2.12
2018-07-15T14:39:54.373Z,4.15
2018-07-15T14:43:18.850Z,2.62
2018-07-15T14:46:43.298Z,2.70
2018-07-15T14:50:07.768Z,2.35
2018-07-15T14:53:32.240Z,2.30
2018-07-15T14:56:56.726Z,2.40
2018-07-15T15:00:21.161Z,2.00
2018-07-15T15:03:45.645Z,2.22
2018-07-15T15:07:10.152Z,2.35
2018-07-15T15:10:34.605Z,4.90
2018-07-15T15:13:59.097Z,3.72
2018-07-15T15:17:23.548Z,3.22
2018-07-15T15:20:48.031Z,3.50
2018-07-15T15:24:12.569Z,3.10
2018-07-15T15:27:37.029Z,2.83
2018-07-15T15:31:01.457Z,2.60
2018-07-15T15:34:25.965Z,2.45
2018-07-15T15:37:50.400Z,2.20
2018-07-15T15:41:14.836Z,1.85
2018-07-15T15:44:39.274Z,2.08
2018-07-15T15:48:03.748Z,2.02
2018-07-15T15:51:28.179Z,1.90
2018-07-15T15:54:52.638Z,2.00
2018-07-15T15:58:17.153Z,2.25
2018-07-15T16:01:41.594Z,3.60
2018-07-15T16:05:06.374Z,1.45
2018-07-15T16:08:30.740Z,1.90
2018-07-15T16:11:55.243Z,1.75
2018-07-15T16:15:19.696Z,1.72
2018-07-15T16:18:44.141Z,2.05
2018-07-15T16:22:08.630Z,1.77
2018-07-15T16:25:33.096Z,1.20
2018-07-15T16:28:57.542Z,1.57
2018-07-15T16:32:22.012Z,1.42
2018-07-15T16:35:46.428Z,1.47
2018-07-15T16:39:10.872Z,2.72
2018-07-15T16:42:35.304Z,1.98
2018-07-15T16:45:59.724Z,2.70
2018-07-15T16:49:24.135Z,1.95
2018-07-15T16:52:48.541Z,4.30
2018-07-15T16:56:12.978Z,2.22
2018-07-15T16:59:37.501Z,1.95
2018-07-15T17:03:01.972Z,1.77
2018-07-15T17:06:26.390Z,2.65
2018-07-15T17:09:50.866Z,3.02
2018-07-15T17:13:15.235Z,1.85
2018-07-15T17:16:39.645Z,1.60
2018-07-15T17:20:04.083Z,2.00
2018-07-15T17:23:28.525Z,1.20
2018-07-15T17:26:52.942Z,1.80
2018-07-15T17:30:17.361Z,2.62
2018-07-15T17:33:41.818Z,2.40
2018-07-15T17:37:06.354Z,2.60
2018-07-15T17:40:30.804Z,2.35
2018-07-15T17:43:55.173Z,2.42
2018-07-15T17:47:19.604Z,3.15
2018-07-15T17:50:44.028Z,4.80
2018-07-15T17:54:08.446Z,4.60
2018-07-15T17:57:32.959Z,3.50
2018-07-15T18:00:57.407Z,2.10
2018-07-15T18:04:21.945Z,2.85
2018-07-15T18:07:46.347Z,5.30
2018-07-15T18:11:10.867Z,6.30
2018-07-15T18:14:35.296Z,2.87
2018-07-15T18:17:59.712Z,3.83
2018-07-15T18:21:24.163Z,12.30
2018-07-15T18:24:48.623Z,7.83
2018-07-15T18:28:13.079Z,4.12
2018-07-15T18:31:37.486Z,2.22
2018-07-15T18:35:01.914Z,2.02
2018-07-15T18:38:26.493Z,1.60
2018-07-15T18:41:50.901Z,3.92
2018-07-15T18:45:15.333Z,2.72
2018-07-15T18:48:39.769Z,2.72
2018-07-15T18:52:04.202Z,4.10
2018-07-15T18:55:28.610Z,4.83
2018-07-15T18:58:53.125Z,2.87
2018-07-15T19:02:17.657Z,2.08
2018-07-15T19:05:42.195Z,4.35
2018-07-15T19:09:08.085Z,1.60
2018-07-15T19:12:32.525Z,2.67
2018-07-15T19:15:56.946Z,1.82
2018-07-15T19:19:21.385Z,1.62
2018-07-15T19:22:45.794Z,1.70
2018-07-15T19:26:10.275Z,1.67
2018-07-15T19:29:34.720Z,1.82
2018-07-15T19:32:59.166Z,6.08
2018-07-15T19:36:23.622Z,1.57
2018-07-15T19:39:48.030Z,1.60
2018-07-15T19:43:12.477Z,1.80
2018-07-15T19:46:36.894Z,4.62
2018-07-15T19:50:02.156Z,2.10
2018-07-15T19:53:26.602Z,2.05
2018-07-15T19:56:50.998Z,1.45
2018-07-15T20:00:15.440Z,2.02
2018-07-15T20:03:39.904Z,2.12
2018-07-15T20:07:04.328Z,1.90
2018-07-15T20:10:28.850Z,2.33
2018-07-15T20:13:53.230Z,1.95
2018-07-15T20:17:17.635Z,1.87
2018-07-15T20:20:42.065Z,1.60
2018-07-15T20:24:06.514Z,1.80
2018-07-15T20:27:30.906Z,5.78
2018-07-15T20:30:55.355Z,2.00
2018-07-15T20:34:19.857Z,1.72
2018-07-15T20:37:44.208Z,1.98
2018-07-15T20:41:08.744Z,2.77
2018-07-15T20:44:33.166Z,2.10
2018-07-15T20:47:57.583Z,2.40
2018-07-15T20:51:22.021Z,2.20
2018-07-15T20:54:46.453Z,1.90
2018-07-15T20:58:10.938Z,2.40
2018-07-15T21:01:36.283Z,2.37
2018-07-15T21:05:00.759Z,2.05
2018-07-15T21:08:25.189Z,2.22
2018-07-15T21:11:49.590Z,2.33
2018-07-15T21:15:14.005Z,2.30
2018-07-15T21:18:38.546Z,2.10
2018-07-15T21:22:02.993Z,2.10
2018-07-15T21:25:27.384Z,2.20
2018-07-15T21:28:51.783Z,2.30
2018-07-15T21:32:16.341Z,2.90
2018-07-15T21:35:40.732Z,2.67
2018-07-15T21:39:07.111Z,2.67
2018-07-15T21:42:31.536Z,2.15
2018-07-15T21:45:55.965Z,2.80
2018-07-15T21:49:20.384Z,2.17
2018-07-15T21:52:44.833Z,2.12
2018-07-15T21:56:09.247Z,2.27
2018-07-15T21:59:33.692Z,2.37
2018-07-15T22:02:58.210Z,2.47
2018-07-15T22:06:33.372Z,2.35
2018-07-15T22:10:20.758Z,2.20
2018-07-15T22:13:45.186Z,2.77
2018-07-15T22:17:09.603Z,2.58
2018-07-15T22:20:34.086Z,2.25
2018-07-15T22:23:58.499Z,2.47
2018-07-15T22:27:22.915Z,2.47
2018-07-15T22:30:47.377Z,5.00
2018-07-15T22:34:11.751Z,2.98
2018-07-15T22:37:36.166Z,2.10
2018-07-15T22:41:00.657Z,2.80
2018-07-15T22:44:24.814Z,2.55
2018-07-15T22:47:49.252Z,2.62
2018-07-15T22:51:13.634Z,2.83
2018-07-15T22:54:38.082Z,2.40
2018-07-15T22:58:02.494Z,4.90
2018-07-15T23:01:26.965Z,3.10
2018-07-15T23:06:05.704Z,2.52
2018-07-15T23:09:30.135Z,2.87
2018-07-15T23:12:54.683Z,3.58
2018-07-15T23:16:19.118Z,4.15
2018-07-15T23:19:43.582Z,2.55
2018-07-15T23:23:08.702Z,2.60
2018-07-15T23:26:33.100Z,2.22
2018-07-15T23:29:57.516Z,3.83
2018-07-15T23:33:21.934Z,2.67
2018-07-15T23:36:46.376Z,2.52
2018-07-15T23:40:10.860Z,2.52
2018-07-15T23:43:35.331Z,2.62
2018-07-15T23:46:59.779Z,2.50
2018-07-15T23:50:24.304Z,2.30
2018-07-15T23:53:48.759Z,1.95
2018-07-15T23:57:13.219Z,2.65
